Loysburg, Pennsylvania
Current Conditions -  °F | °C
As of 6:53 PM on Friday 28 Nov 2014 (Local Time) from KAOO Reporting Station
Broken Clouds Broken Clouds  
Wind Chill: 16°   Ceiling: 11000
Heat Index: 22°   Visibility: 10mi
Dew Point: 13°   Wind: 5mph
Humidity: 68%   Direction: 190°S
Pressure: 30.21"   Gusts: NA
Location:  40.16°N, 78.37°W
Report Text: KAOO 282353Z AUTO 19004KT 10SM BKN110 M06/M11 A3021 RMK AO2 SLP252 T10561106 11028 21067 51002
Loading
Personal Weather Stations






























Interactive Weather Map New forecast layout! Learn more

10-Day Weather Forecast

Advertisements
Track Severe Weather on mobile